sensor_id;sensor_type;location;lat;lon;timestamp;temperature;humidity
45491;DHT22;31237;45.586;13.782;2022-10-17T00:00:48;14.60;92.00
45491;DHT22;31237;45.586;13.782;2022-10-17T00:03:13;14.60;92.00
45491;DHT22;31237;45.586;13.782;2022-10-17T00:05:41;14.50;92.00
45491;DHT22;31237;45.586;13.782;2022-10-17T00:08:07;14.60;92.00
45491;DHT22;31237;45.586;13.782;2022-10-17T00:10:33;14.50;92.00
45491;DHT22;31237;45.586;13.782;2022-10-17T00:12:59;14.50;92.00
45491;DHT22;31237;45.586;13.782;2022-10-17T00:15:24;14.50;92.00
45491;DHT22;31237;45.586;13.782;2022-10-17T00:17:50;14.50;92.00
45491;DHT22;31237;45.586;13.782;2022-10-17T00:20:16;14.50;92.10
45491;DHT22;31237;45.586;13.782;2022-10-17T00:22:42;14.50;92.10
45491;DHT22;31237;45.586;13.782;2022-10-17T00:25:08;14.50;92.10
45491;DHT22;31237;45.586;13.782;2022-10-17T00:27:39;14.50;92.10
45491;DHT22;31237;45.586;13.782;2022-10-17T00:30:06;14.50;92.10
45491;DHT22;31237;45.586;13.782;2022-10-17T00:32:32;14.50;92.10
45491;DHT22;31237;45.586;13.782;2022-10-17T00:34:58;14.50;92.10
45491;DHT22;31237;45.586;13.782;2022-10-17T00:37:24;14.50;92.10
45491;DHT22;31237;45.586;13.782;2022-10-17T00:39:49;14.50;92.10
45491;DHT22;31237;45.586;13.782;2022-10-17T00:42:15;14.40;92.00
45491;DHT22;31237;45.586;13.782;2022-10-17T00:48:08;14.50;92.00
45491;DHT22;31237;45.586;13.782;2022-10-17T00:50:34;14.40;92.10
45491;DHT22;31237;45.586;13.782;2022-10-17T00:53:01;14.40;92.10
45491;DHT22;31237;45.586;13.782;2022-10-17T00:55:32;14.40;92.10
45491;DHT22;31237;45.586;13.782;2022-10-17T00:58:00;14.40;92.10
45491;DHT22;31237;45.586;13.782;2022-10-17T01:00:27;14.40;92.20
45491;DHT22;31237;45.586;13.782;2022-10-17T01:02:53;14.40;92.20
45491;DHT22;31237;45.586;13.782;2022-10-17T01:05:19;14.40;92.30
45491;DHT22;31237;45.586;13.782;2022-10-17T01:07:46;14.40;92.30
45491;DHT22;31237;45.586;13.782;2022-10-17T01:10:14;14.40;92.30
45491;DHT22;31237;45.586;13.782;2022-10-17T01:12:42;14.40;92.30
45491;DHT22;31237;45.586;13.782;2022-10-17T01:15:49;14.40;92.40
45491;DHT22;31237;45.586;13.782;2022-10-17T01:21:36;14.40;92.30
45491;DHT22;31237;45.586;13.782;2022-10-17T01:32:46;14.40;92.30
45491;DHT22;31237;45.586;13.782;2022-10-17T01:35:21;14.40;92.30
45491;DHT22;31237;45.586;13.782;2022-10-17T01:37:58;14.40;92.30
45491;DHT22;31237;45.586;13.782;2022-10-17T01:40:43;14.30;92.30
45491;DHT22;31237;45.586;13.782;2022-10-17T01:43:57;14.40;92.30
45491;DHT22;31237;45.586;13.782;2022-10-17T01:46:29;14.40;92.30
45491;DHT22;31237;45.586;13.782;2022-10-17T01:48:59;14.30;92.30
45491;DHT22;31237;45.586;13.782;2022-10-17T01:51:33;14.30;92.30
45491;DHT22;31237;45.586;13.782;2022-10-17T01:56:30;14.30;92.30
45491;DHT22;31237;45.586;13.782;2022-10-17T01:59:21;14.40;92.40
45491;DHT22;31237;45.586;13.782;2022-10-17T02:01:51;14.40;92.40
45491;DHT22;31237;45.586;13.782;2022-10-17T02:04:17;14.40;92.40
45491;DHT22;31237;45.586;13.782;2022-10-17T02:06:43;14.40;92.30
45491;DHT22;31237;45.586;13.782;2022-10-17T02:09:22;14.40;92.30
45491;DHT22;31237;45.586;13.782;2022-10-17T02:22:59;14.50;92.20
45491;DHT22;31237;45.586;13.782;2022-10-17T02:28:53;14.50;92.10
45491;DHT22;31237;45.586;13.782;2022-10-17T02:31:40;14.50;92.10
45491;DHT22;31237;45.586;13.782;2022-10-17T02:34:20;14.50;92.10
45491;DHT22;31237;45.586;13.782;2022-10-17T02:36:54;14.40;92.00
45491;DHT22;31237;45.586;13.782;2022-10-17T02:39:22;14.50;92.10
45491;DHT22;31237;45.586;13.782;2022-10-17T02:41:50;14.40;92.00
45491;DHT22;31237;45.586;13.782;2022-10-17T02:44:16;14.40;92.00
45491;DHT22;31237;45.586;13.782;2022-10-17T02:46:44;14.40;92.00
45491;DHT22;31237;45.586;13.782;2022-10-17T02:49:22;14.40;92.00
45491;DHT22;31237;45.586;13.782;2022-10-17T02:54:32;14.40;92.00
45491;DHT22;31237;45.586;13.782;2022-10-17T02:57:27;14.40;92.00
45491;DHT22;31237;45.586;13.782;2022-10-17T02:59:57;14.40;92.10
45491;DHT22;31237;45.586;13.782;2022-10-17T03:02:24;14.40;92.10
45491;DHT22;31237;45.586;13.782;2022-10-17T03:04:49;14.40;92.10
45491;DHT22;31237;45.586;13.782;2022-10-17T03:07:15;14.40;92.00
45491;DHT22;31237;45.586;13.782;2022-10-17T03:09:41;14.50;92.00
45491;DHT22;31237;45.586;13.782;2022-10-17T03:12:06;14.50;92.00
45491;DHT22;31237;45.586;13.782;2022-10-17T03:14:32;14.50;91.90
45491;DHT22;31237;45.586;13.782;2022-10-17T03:16:58;14.50;91.90
45491;DHT22;31237;45.586;13.782;2022-10-17T03:19:23;14.50;92.00
45491;DHT22;31237;45.586;13.782;2022-10-17T03:21:49;14.50;91.90
45491;DHT22;31237;45.586;13.782;2022-10-17T03:24:15;14.50;91.90
45491;DHT22;31237;45.586;13.782;2022-10-17T03:26:40;14.50;91.80
45491;DHT22;31237;45.586;13.782;2022-10-17T03:29:06;14.50;91.80
45491;DHT22;31237;45.586;13.782;2022-10-17T03:31:32;14.60;91.80
45491;DHT22;31237;45.586;13.782;2022-10-17T03:33:57;14.50;91.80
45491;DHT22;31237;45.586;13.782;2022-10-17T03:36:23;14.50;91.80
45491;DHT22;31237;45.586;13.782;2022-10-17T03:38:53;14.50;91.80
45491;DHT22;31237;45.586;13.782;2022-10-17T03:41:19;14.50;91.80
45491;DHT22;31237;45.586;13.782;2022-10-17T03:43:44;14.50;91.80
45491;DHT22;31237;45.586;13.782;2022-10-17T03:46:10;14.40;91.70
45491;DHT22;31237;45.586;13.782;2022-10-17T03:48:36;14.40;91.80
45491;DHT22;31237;45.586;13.782;2022-10-17T03:51:07;14.40;91.80
45491;DHT22;31237;45.586;13.782;2022-10-17T03:53:33;14.40;91.80
45491;DHT22;31237;45.586;13.782;2022-10-17T03:58:38;14.40;91.90
45491;DHT22;31237;45.586;13.782;2022-10-17T04:01:09;14.40;91.90
45491;DHT22;31237;45.586;13.782;2022-10-17T04:03:35;14.40;91.80
45491;DHT22;31237;45.586;13.782;2022-10-17T04:06:02;14.40;91.80
45491;DHT22;31237;45.586;13.782;2022-10-17T04:08:29;14.30;91.80
45491;DHT22;31237;45.586;13.782;2022-10-17T04:10:58;14.30;91.80
45491;DHT22;31237;45.586;13.782;2022-10-17T04:13:24;14.30;91.80
45491;DHT22;31237;45.586;13.782;2022-10-17T04:16:15;14.30;91.80
45491;DHT22;31237;45.586;13.782;2022-10-17T04:18:42;14.20;92.10
45491;DHT22;31237;45.586;13.782;2022-10-17T04:21:08;14.20;91.80
45491;DHT22;31237;45.586;13.782;2022-10-17T04:23:34;14.20;91.90
45491;DHT22;31237;45.586;13.782;2022-10-17T04:26:01;14.10;91.90
45491;DHT22;31237;45.586;13.782;2022-10-17T04:28:29;14.10;91.90
45491;DHT22;31237;45.586;13.782;2022-10-17T04:30:56;14.10;91.90
45491;DHT22;31237;45.586;13.782;2022-10-17T04:33:22;14.10;91.90
45491;DHT22;31237;45.586;13.782;2022-10-17T04:35:59;14.10;92.00
45491;DHT22;31237;45.586;13.782;2022-10-17T04:38:25;14.00;92.00
45491;DHT22;31237;45.586;13.782;2022-10-17T04:40:51;14.00;92.00
45491;DHT22;31237;45.586;13.782;2022-10-17T04:43:17;14.00;92.10
45491;DHT22;31237;45.586;13.782;2022-10-17T04:45:43;14.00;92.00
45491;DHT22;31237;45.586;13.782;2022-10-17T04:48:09;14.00;92.10
45491;DHT22;31237;45.586;13.782;2022-10-17T04:50:34;14.00;92.30
45491;DHT22;31237;45.586;13.782;2022-10-17T04:53:00;13.90;92.00
45491;DHT22;31237;45.586;13.782;2022-10-17T04:55:26;13.90;92.10
45491;DHT22;31237;45.586;13.782;2022-10-17T04:57:52;13.90;92.10
45491;DHT22;31237;45.586;13.782;2022-10-17T05:00:17;13.90;92.10
45491;DHT22;31237;45.586;13.782;2022-10-17T05:02:43;13.90;92.10
45491;DHT22;31237;45.586;13.782;2022-10-17T05:05:09;13.80;92.40
45491;DHT22;31237;45.586;13.782;2022-10-17T05:07:34;13.80;92.20
45491;DHT22;31237;45.586;13.782;2022-10-17T05:10:03;13.80;92.20
45491;DHT22;31237;45.586;13.782;2022-10-17T05:12:29;13.80;92.20
45491;DHT22;31237;45.586;13.782;2022-10-17T05:14:55;13.70;92.20
45491;DHT22;31237;45.586;13.782;2022-10-17T05:17:21;13.70;92.20
45491;DHT22;31237;45.586;13.782;2022-10-17T05:19:46;13.70;92.20
45491;DHT22;31237;45.586;13.782;2022-10-17T05:22:12;13.60;92.20
45491;DHT22;31237;45.586;13.782;2022-10-17T05:24:38;13.70;92.30
45491;DHT22;31237;45.586;13.782;2022-10-17T05:27:03;13.60;92.30
45491;DHT22;31237;45.586;13.782;2022-10-17T05:29:29;13.60;92.30
45491;DHT22;31237;45.586;13.782;2022-10-17T05:31:55;13.60;92.40
45491;DHT22;31237;45.586;13.782;2022-10-17T05:34:20;13.60;92.40
45491;DHT22;31237;45.586;13.782;2022-10-17T05:36:46;13.60;92.40
45491;DHT22;31237;45.586;13.782;2022-10-17T05:39:12;13.60;92.50
45491;DHT22;31237;45.586;13.782;2022-10-17T05:41:39;13.60;92.40
45491;DHT22;31237;45.586;13.782;2022-10-17T05:44:05;13.60;92.50
45491;DHT22;31237;45.586;13.782;2022-10-17T05:46:30;13.60;92.50
45491;DHT22;31237;45.586;13.782;2022-10-17T05:48:56;13.60;92.50
45491;DHT22;31237;45.586;13.782;2022-10-17T05:51:22;13.60;92.50
45491;DHT22;31237;45.586;13.782;2022-10-17T05:53:48;13.60;92.50
45491;DHT22;31237;45.586;13.782;2022-10-17T05:56:14;13.60;92.50
45491;DHT22;31237;45.586;13.782;2022-10-17T05:58:41;13.60;92.50
45491;DHT22;31237;45.586;13.782;2022-10-17T06:01:09;13.60;92.60
45491;DHT22;31237;45.586;13.782;2022-10-17T06:03:35;13.60;92.60
45491;DHT22;31237;45.586;13.782;2022-10-17T06:06:09;13.60;92.60
45491;DHT22;31237;45.586;13.782;2022-10-17T06:08:34;13.60;92.60
45491;DHT22;31237;45.586;13.782;2022-10-17T06:11:00;13.70;92.70
45491;DHT22;31237;45.586;13.782;2022-10-17T06:13:26;13.70;92.80
45491;DHT22;31237;45.586;13.782;2022-10-17T06:15:52;13.70;92.90
45491;DHT22;31237;45.586;13.782;2022-10-17T06:18:17;13.80;92.90
45491;DHT22;31237;45.586;13.782;2022-10-17T06:20:43;13.80;92.90
45491;DHT22;31237;45.586;13.782;2022-10-17T06:23:09;13.80;93.00
45491;DHT22;31237;45.586;13.782;2022-10-17T06:25:34;13.90;93.00
45491;DHT22;31237;45.586;13.782;2022-10-17T06:28:00;13.90;93.00
45491;DHT22;31237;45.586;13.782;2022-10-17T06:30:26;14.00;93.10
45491;DHT22;31237;45.586;13.782;2022-10-17T06:32:52;14.00;93.10
45491;DHT22;31237;45.586;13.782;2022-10-17T06:35:19;14.10;93.20
45491;DHT22;31237;45.586;13.782;2022-10-17T06:37:45;14.10;93.10
45491;DHT22;31237;45.586;13.782;2022-10-17T06:40:11;14.20;93.20
45491;DHT22;31237;45.586;13.782;2022-10-17T06:42:38;14.30;93.20
45491;DHT22;31237;45.586;13.782;2022-10-17T06:45:04;14.30;93.20
45491;DHT22;31237;45.586;13.782;2022-10-17T06:47:30;14.40;93.30
45491;DHT22;31237;45.586;13.782;2022-10-17T06:49:56;14.50;93.30
45491;DHT22;31237;45.586;13.782;2022-10-17T06:52:21;14.50;93.30
45491;DHT22;31237;45.586;13.782;2022-10-17T06:54:47;14.60;93.40
45491;DHT22;31237;45.586;13.782;2022-10-17T06:57:13;14.70;93.40
45491;DHT22;31237;45.586;13.782;2022-10-17T06:59:39;14.70;93.50
45491;DHT22;31237;45.586;13.782;2022-10-17T07:02:05;14.80;93.60
45491;DHT22;31237;45.586;13.782;2022-10-17T07:04:31;14.90;93.60
45491;DHT22;31237;45.586;13.782;2022-10-17T07:06:57;14.90;93.50
45491;DHT22;31237;45.586;13.782;2022-10-17T07:09:22;15.00;93.50
45491;DHT22;31237;45.586;13.782;2022-10-17T07:11:48;15.10;93.40
45491;DHT22;31237;45.586;13.782;2022-10-17T07:14:14;15.10;93.40
45491;DHT22;31237;45.586;13.782;2022-10-17T07:16:40;15.20;93.40
45491;DHT22;31237;45.586;13.782;2022-10-17T07:19:06;15.30;93.30
45491;DHT22;31237;45.586;13.782;2022-10-17T07:21:31;15.40;93.30
45491;DHT22;31237;45.586;13.782;2022-10-17T07:23:57;15.50;93.20
45491;DHT22;31237;45.586;13.782;2022-10-17T07:26:23;15.50;93.20
45491;DHT22;31237;45.586;13.782;2022-10-17T07:28:52;15.60;93.10
45491;DHT22;31237;45.586;13.782;2022-10-17T07:31:19;15.60;93.00
45491;DHT22;31237;45.586;13.782;2022-10-17T07:33:46;15.70;93.00
45491;DHT22;31237;45.586;13.782;2022-10-17T07:36:13;15.80;92.90
45491;DHT22;31237;45.586;13.782;2022-10-17T07:38:39;15.90;92.90
45491;DHT22;31237;45.586;13.782;2022-10-17T07:41:07;16.00;92.80
45491;DHT22;31237;45.586;13.782;2022-10-17T07:43:34;16.10;92.70
45491;DHT22;31237;45.586;13.782;2022-10-17T07:46:01;16.10;92.60
45491;DHT22;31237;45.586;13.782;2022-10-17T07:48:28;16.20;92.60
45491;DHT22;31237;45.586;13.782;2022-10-17T07:50:54;16.30;92.50
45491;DHT22;31237;45.586;13.782;2022-10-17T07:53:20;16.30;92.40
45491;DHT22;31237;45.586;13.782;2022-10-17T07:55:45;16.40;92.50
45491;DHT22;31237;45.586;13.782;2022-10-17T07:58:12;16.40;92.40
45491;DHT22;31237;45.586;13.782;2022-10-17T08:00:38;16.50;92.40
45491;DHT22;31237;45.586;13.782;2022-10-17T08:03:05;16.50;92.30
45491;DHT22;31237;45.586;13.782;2022-10-17T08:05:31;16.60;92.30
45491;DHT22;31237;45.586;13.782;2022-10-17T08:07:57;16.70;92.20
45491;DHT22;31237;45.586;13.782;2022-10-17T08:10:23;16.70;92.20
45491;DHT22;31237;45.586;13.782;2022-10-17T08:12:55;16.80;92.20
45491;DHT22;31237;45.586;13.782;2022-10-17T08:15:22;16.90;92.20
45491;DHT22;31237;45.586;13.782;2022-10-17T08:17:48;16.90;92.10
45491;DHT22;31237;45.586;13.782;2022-10-17T08:20:13;17.00;92.00
45491;DHT22;31237;45.586;13.782;2022-10-17T08:22:39;17.10;91.90
45491;DHT22;31237;45.586;13.782;2022-10-17T08:25:06;17.10;91.80
45491;DHT22;31237;45.586;13.782;2022-10-17T08:27:33;17.20;91.70
45491;DHT22;31237;45.586;13.782;2022-10-17T08:29:59;17.30;91.70
45491;DHT22;31237;45.586;13.782;2022-10-17T08:32:26;17.40;91.80
45491;DHT22;31237;45.586;13.782;2022-10-17T08:34:53;17.40;91.60
45491;DHT22;31237;45.586;13.782;2022-10-17T08:37:20;17.50;91.60
45491;DHT22;31237;45.586;13.782;2022-10-17T08:39:46;17.60;91.50
45491;DHT22;31237;45.586;13.782;2022-10-17T08:47:38;17.80;91.30
45491;DHT22;31237;45.586;13.782;2022-10-17T08:50:24;17.80;91.20
45491;DHT22;31237;45.586;13.782;2022-10-17T08:53:38;17.90;91.10
45491;DHT22;31237;45.586;13.782;2022-10-17T08:55:46;18.00;91.10
45491;DHT22;31237;45.586;13.782;2022-10-17T08:58:16;18.10;91.00
45491;DHT22;31237;45.586;13.782;2022-10-17T09:01:08;18.10;90.90
45491;DHT22;31237;45.586;13.782;2022-10-17T09:09:34;18.40;90.80
45491;DHT22;31237;45.586;13.782;2022-10-17T09:17:12;18.60;90.50
45491;DHT22;31237;45.586;13.782;2022-10-17T09:19:44;18.70;90.50
45491;DHT22;31237;45.586;13.782;2022-10-17T09:22:19;18.80;90.40
45491;DHT22;31237;45.586;13.782;2022-10-17T09:24:55;18.80;90.20
45491;DHT22;31237;45.586;13.782;2022-10-17T09:27:34;18.80;90.10
45491;DHT22;31237;45.586;13.782;2022-10-17T09:32:46;18.90;89.70
45491;DHT22;31237;45.586;13.782;2022-10-17T09:35:15;18.90;89.70
45491;DHT22;31237;45.586;13.782;2022-10-17T09:37:41;18.90;89.70
45491;DHT22;31237;45.586;13.782;2022-10-17T09:40:18;18.90;89.30
45491;DHT22;31237;45.586;13.782;2022-10-17T09:42:49;19.00;89.40
45491;DHT22;31237;45.586;13.782;2022-10-17T09:45:24;19.00;89.40
45491;DHT22;31237;45.586;13.782;2022-10-17T09:48:25;19.00;89.20
45491;DHT22;31237;45.586;13.782;2022-10-17T09:50:52;19.10;89.10
45491;DHT22;31237;45.586;13.782;2022-10-17T09:53:28;19.10;88.90
45491;DHT22;31237;45.586;13.782;2022-10-17T09:56:01;19.10;88.70
45491;DHT22;31237;45.586;13.782;2022-10-17T10:01:26;19.20;88.70
45491;DHT22;31237;45.586;13.782;2022-10-17T10:04:12;19.20;88.50
45491;DHT22;31237;45.586;13.782;2022-10-17T10:06:38;19.30;88.40
45491;DHT22;31237;45.586;13.782;2022-10-17T10:09:05;19.30;88.40
45491;DHT22;31237;45.586;13.782;2022-10-17T10:11:54;19.40;88.50
45491;DHT22;31237;45.586;13.782;2022-10-17T10:14:35;19.40;88.20
45491;DHT22;31237;45.586;13.782;2022-10-17T10:17:03;19.50;88.10
45491;DHT22;31237;45.586;13.782;2022-10-17T10:19:36;19.50;88.00
45491;DHT22;31237;45.586;13.782;2022-10-17T10:22:04;19.60;88.00
45491;DHT22;31237;45.586;13.782;2022-10-17T10:24:31;19.60;87.90
45491;DHT22;31237;45.586;13.782;2022-10-17T10:26:59;19.60;87.70
45491;DHT22;31237;45.586;13.782;2022-10-17T10:29:32;19.70;87.80
45491;DHT22;31237;45.586;13.782;2022-10-17T10:32:19;19.80;87.80
45491;DHT22;31237;45.586;13.782;2022-10-17T10:34:49;19.80;87.70
45491;DHT22;31237;45.586;13.782;2022-10-17T10:37:22;19.90;87.50
45491;DHT22;31237;45.586;13.782;2022-10-17T10:44:47;20.00;87.30
45491;DHT22;31237;45.586;13.782;2022-10-17T10:47:25;20.00;87.20
45491;DHT22;31237;45.586;13.782;2022-10-17T10:50:20;20.00;87.20
45491;DHT22;31237;45.586;13.782;2022-10-17T10:52:54;20.10;87.20
45491;DHT22;31237;45.586;13.782;2022-10-17T10:55:27;20.10;87.10
45491;DHT22;31237;45.586;13.782;2022-10-17T10:57:59;20.10;87.20
45491;DHT22;31237;45.586;13.782;2022-10-17T11:00:27;20.10;87.20
45491;DHT22;31237;45.586;13.782;2022-10-17T11:03:19;20.10;87.20
45491;DHT22;31237;45.586;13.782;2022-10-17T11:06:03;20.10;87.20
45491;DHT22;31237;45.586;13.782;2022-10-17T11:08:35;20.10;87.40
45491;DHT22;31237;45.586;13.782;2022-10-17T11:13:47;20.10;87.20
45491;DHT22;31237;45.586;13.782;2022-10-17T11:16:34;20.20;86.80
45491;DHT22;31237;45.586;13.782;2022-10-17T11:19:23;20.20;86.50
45491;DHT22;31237;45.586;13.782;2022-10-17T11:25:03;20.20;86.00
45491;DHT22;31237;45.586;13.782;2022-10-17T11:27:30;20.20;86.00
45491;DHT22;31237;45.586;13.782;2022-10-17T11:29:56;20.10;86.00
45491;DHT22;31237;45.586;13.782;2022-10-17T11:32:45;20.20;86.20
45491;DHT22;31237;45.586;13.782;2022-10-17T11:35:23;20.10;86.10
45491;DHT22;31237;45.586;13.782;2022-10-17T11:40:56;20.20;86.00
45491;DHT22;31237;45.586;13.782;2022-10-17T11:44:29;20.20;85.90
45491;DHT22;31237;45.586;13.782;2022-10-17T11:46:26;20.20;85.50
45491;DHT22;31237;45.586;13.782;2022-10-17T11:49:11;20.20;85.20
45491;DHT22;31237;45.586;13.782;2022-10-17T11:51:50;20.20;84.40
45491;DHT22;31237;45.586;13.782;2022-10-17T11:56:57;20.20;84.40
45491;DHT22;31237;45.586;13.782;2022-10-17T12:02:11;20.20;84.20
45491;DHT22;31237;45.586;13.782;2022-10-17T12:10:32;20.20;84.60
45491;DHT22;31237;45.586;13.782;2022-10-17T12:15:49;20.10;85.20
45491;DHT22;31237;45.586;13.782;2022-10-17T12:18:16;20.10;86.00
45491;DHT22;31237;45.586;13.782;2022-10-17T12:20:42;20.10;85.30
45491;DHT22;31237;45.586;13.782;2022-10-17T12:25:48;20.00;84.80
45491;DHT22;31237;45.586;13.782;2022-10-17T12:30:57;20.00;84.40
45491;DHT22;31237;45.586;13.782;2022-10-17T12:33:37;19.90;84.60
45491;DHT22;31237;45.586;13.782;2022-10-17T12:49:50;19.90;84.70
45491;DHT22;31237;45.586;13.782;2022-10-17T13:00:19;19.90;84.40
45491;DHT22;31237;45.586;13.782;2022-10-17T13:02:47;19.90;84.20
45491;DHT22;31237;45.586;13.782;2022-10-17T13:05:21;19.80;83.80
45491;DHT22;31237;45.586;13.782;2022-10-17T13:07:49;19.80;83.60
45491;DHT22;31237;45.586;13.782;2022-10-17T13:10:27;19.80;83.40
45491;DHT22;31237;45.586;13.782;2022-10-17T13:13:03;19.70;83.50
45491;DHT22;31237;45.586;13.782;2022-10-17T13:15:30;19.70;83.40
45491;DHT22;31237;45.586;13.782;2022-10-17T13:17:57;19.70;83.20
45491;DHT22;31237;45.586;13.782;2022-10-17T13:20:26;19.70;83.50
45491;DHT22;31237;45.586;13.782;2022-10-17T13:22:54;19.70;83.60
45491;DHT22;31237;45.586;13.782;2022-10-17T13:25:20;19.70;83.60
45491;DHT22;31237;45.586;13.782;2022-10-17T13:27:48;19.60;83.70
45491;DHT22;31237;45.586;13.782;2022-10-17T13:30:30;19.60;83.70
45491;DHT22;31237;45.586;13.782;2022-10-17T13:32:56;19.60;83.80
45491;DHT22;31237;45.586;13.782;2022-10-17T13:35:29;19.60;83.90
45491;DHT22;31237;45.586;13.782;2022-10-17T13:37:55;19.60;83.80
45491;DHT22;31237;45.586;13.782;2022-10-17T13:40:24;19.60;83.70
45491;DHT22;31237;45.586;13.782;2022-10-17T13:42:51;19.60;83.90
45491;DHT22;31237;45.586;13.782;2022-10-17T13:45:33;19.60;83.80
45491;DHT22;31237;45.586;13.782;2022-10-17T13:48:04;19.60;83.80
45491;DHT22;31237;45.586;13.782;2022-10-17T13:50:37;19.50;83.90
45491;DHT22;31237;45.586;13.782;2022-10-17T13:56:16;19.50;83.70
45491;DHT22;31237;45.586;13.782;2022-10-17T13:58:50;19.50;84.00
45491;DHT22;31237;45.586;13.782;2022-10-17T14:01:17;19.40;84.10
45491;DHT22;31237;45.586;13.782;2022-10-17T14:03:45;19.40;84.20
45491;DHT22;31237;45.586;13.782;2022-10-17T14:06:17;19.40;84.30
45491;DHT22;31237;45.586;13.782;2022-10-17T14:13:55;19.40;84.40
45491;DHT22;31237;45.586;13.782;2022-10-17T14:16:22;19.30;84.50
45491;DHT22;31237;45.586;13.782;2022-10-17T14:18:51;19.30;84.70
45491;DHT22;31237;45.586;13.782;2022-10-17T14:21:23;19.30;84.90
45491;DHT22;31237;45.586;13.782;2022-10-17T14:23:52;19.30;85.90
45491;DHT22;31237;45.586;13.782;2022-10-17T14:26:49;19.30;85.20
45491;DHT22;31237;45.586;13.782;2022-10-17T14:31:49;19.30;85.40
45491;DHT22;31237;45.586;13.782;2022-10-17T14:34:26;19.20;85.70
45491;DHT22;31237;45.586;13.782;2022-10-17T14:36:54;19.20;85.90
45491;DHT22;31237;45.586;13.782;2022-10-17T14:39:23;19.20;85.90
45491;DHT22;31237;45.586;13.782;2022-10-17T14:41:52;19.20;86.00
45491;DHT22;31237;45.586;13.782;2022-10-17T14:44:30;19.10;86.00
45491;DHT22;31237;45.586;13.782;2022-10-17T14:47:03;19.10;86.60
45491;DHT22;31237;45.586;13.782;2022-10-17T14:49:38;19.10;86.70
45491;DHT22;31237;45.586;13.782;2022-10-17T14:54:44;19.10;86.90
45491;DHT22;31237;45.586;13.782;2022-10-17T14:59:47;19.00;87.10
45491;DHT22;31237;45.586;13.782;2022-10-17T15:02:13;18.90;87.20
45491;DHT22;31237;45.586;13.782;2022-10-17T15:04:39;19.00;87.50
45491;DHT22;31237;45.586;13.782;2022-10-17T15:07:05;19.00;87.50
45491;DHT22;31237;45.586;13.782;2022-10-17T15:09:31;18.90;87.50
45491;DHT22;31237;45.586;13.782;2022-10-17T15:12:01;18.90;87.60
45491;DHT22;31237;45.586;13.782;2022-10-17T15:14:28;18.90;87.80
45491;DHT22;31237;45.586;13.782;2022-10-17T15:16:54;18.80;88.00
45491;DHT22;31237;45.586;13.782;2022-10-17T15:19:19;18.80;88.10
45491;DHT22;31237;45.586;13.782;2022-10-17T15:21:45;18.70;88.20
45491;DHT22;31237;45.586;13.782;2022-10-17T15:24:11;18.70;88.30
45491;DHT22;31237;45.586;13.782;2022-10-17T15:26:36;18.70;88.40
45491;DHT22;31237;45.586;13.782;2022-10-17T15:29:02;18.60;88.70
45491;DHT22;31237;45.586;13.782;2022-10-17T15:31:29;18.60;88.80
45491;DHT22;31237;45.586;13.782;2022-10-17T15:33:58;18.50;89.00
45491;DHT22;31237;45.586;13.782;2022-10-17T15:38:53;18.50;89.40
45491;DHT22;31237;45.586;13.782;2022-10-17T15:51:34;18.20;89.60
45491;DHT22;31237;45.586;13.782;2022-10-17T15:54:00;18.10;90.00
45491;DHT22;31237;45.586;13.782;2022-10-17T15:56:33;18.10;90.10
45491;DHT22;31237;45.586;13.782;2022-10-17T15:59:04;18.00;90.10
45491;DHT22;31237;45.586;13.782;2022-10-17T16:01:31;17.90;90.10
45491;DHT22;31237;45.586;13.782;2022-10-17T16:03:57;17.90;90.20
45491;DHT22;31237;45.586;13.782;2022-10-17T16:06:24;17.80;90.30
45491;DHT22;31237;45.586;13.782;2022-10-17T16:08:51;17.70;90.30
45491;DHT22;31237;45.586;13.782;2022-10-17T16:13:52;17.60;90.40
45491;DHT22;31237;45.586;13.782;2022-10-17T16:16:19;17.60;90.50
45491;DHT22;31237;45.586;13.782;2022-10-17T16:18:46;17.50;90.50
45491;DHT22;31237;45.586;13.782;2022-10-17T16:21:13;17.50;90.60
45491;DHT22;31237;45.586;13.782;2022-10-17T16:23:40;17.40;90.60
45491;DHT22;31237;45.586;13.782;2022-10-17T16:26:06;17.30;90.60
45491;DHT22;31237;45.586;13.782;2022-10-17T16:28:32;17.30;90.70
45491;DHT22;31237;45.586;13.782;2022-10-17T16:30:58;17.20;90.80
45491;DHT22;31237;45.586;13.782;2022-10-17T16:33:24;17.10;90.90
45491;DHT22;31237;45.586;13.782;2022-10-17T16:35:50;17.10;90.90
45491;DHT22;31237;45.586;13.782;2022-10-17T16:38:16;17.00;91.00
45491;DHT22;31237;45.586;13.782;2022-10-17T16:40:43;17.00;91.10
45491;DHT22;31237;45.586;13.782;2022-10-17T16:43:12;16.90;91.10
45491;DHT22;31237;45.586;13.782;2022-10-17T16:45:38;16.90;91.20
45491;DHT22;31237;45.586;13.782;2022-10-17T16:48:04;16.80;91.20
45491;DHT22;31237;45.586;13.782;2022-10-17T16:50:30;16.80;91.30
45491;DHT22;31237;45.586;13.782;2022-10-17T16:53:00;16.80;91.40
45491;DHT22;31237;45.586;13.782;2022-10-17T16:55:26;16.70;91.40
45491;DHT22;31237;45.586;13.782;2022-10-17T16:57:51;16.70;91.50
45491;DHT22;31237;45.586;13.782;2022-10-17T17:00:17;16.60;91.50
45491;DHT22;31237;45.586;13.782;2022-10-17T17:02:45;16.60;91.60
45491;DHT22;31237;45.586;13.782;2022-10-17T17:05:12;16.60;91.60
45491;DHT22;31237;45.586;13.782;2022-10-17T17:07:38;16.60;91.70
45491;DHT22;31237;45.586;13.782;2022-10-17T17:10:04;16.50;91.80
45491;DHT22;31237;45.586;13.782;2022-10-17T17:12:34;16.50;91.80
45491;DHT22;31237;45.586;13.782;2022-10-17T17:15:00;16.50;91.90
45491;DHT22;31237;45.586;13.782;2022-10-17T17:17:27;16.50;91.90
45491;DHT22;31237;45.586;13.782;2022-10-17T17:19:53;16.50;92.00
45491;DHT22;31237;45.586;13.782;2022-10-17T17:22:20;16.40;91.90
45491;DHT22;31237;45.586;13.782;2022-10-17T17:24:45;16.40;92.00
45491;DHT22;31237;45.586;13.782;2022-10-17T17:27:11;16.40;92.10
45491;DHT22;31237;45.586;13.782;2022-10-17T17:29:37;16.40;92.10
45491;DHT22;31237;45.586;13.782;2022-10-17T17:32:02;16.40;92.10
45491;DHT22;31237;45.586;13.782;2022-10-17T17:34:28;16.30;92.20
45491;DHT22;31237;45.586;13.782;2022-10-17T17:36:54;16.30;92.20
45491;DHT22;31237;45.586;13.782;2022-10-17T17:39:19;16.30;92.30
45491;DHT22;31237;45.586;13.782;2022-10-17T17:41:45;16.30;92.30
45491;DHT22;31237;45.586;13.782;2022-10-17T17:44:13;16.30;92.40
45491;DHT22;31237;45.586;13.782;2022-10-17T17:46:39;16.30;92.40
45491;DHT22;31237;45.586;13.782;2022-10-17T17:49:05;16.30;92.50
45491;DHT22;31237;45.586;13.782;2022-10-17T17:51:31;16.30;92.50
45491;DHT22;31237;45.586;13.782;2022-10-17T17:53:59;16.20;92.50